Time;durP1;ratioP1;P1;durP2;ratioP2;P2;SDS_P1;SDS_P2;PMS_P1;PMS_P2;Temp;Humidity;BMP_temperature;BMP_pressure;BME280_temperature;BME280_humidity;BME280_pressure;Samples;Min_cycle;Max_cycle;Signal;HPM_P1;HPM_P2
2021/10/08 00:00:54;;;;;;;10.25;8.52;;;;;;;5.55;100.00;93924.59;2075189;28;20025;-88
2021/10/08 00:01:55;;;;;;;10.95;8.27;;;;;;;5.56;100.00;93923.47;2089312;28;20048;-92
2021/10/08 00:02:56;;;;;;;9.57;8.55;;;;;;;5.53;100.00;93920.75;2090924;28;20021;-89
2021/10/08 00:04:00;;;;;;;10.05;8.35;;;;;;;5.51;100.00;93918.50;2082790;28;20080;-91
2021/10/08 00:05:05;;;;;;;10.68;7.60;;;;;;;5.62;100.00;93915.19;2085994;28;20029;-92
2021/10/08 00:06:05;;;;;;;8.80;7.88;;;;;;;5.65;100.00;93922.41;2088847;28;20063;-91
2021/10/08 00:07:08;;;;;;;8.82;8.02;;;;;;;5.60;100.00;93920.84;2075027;28;20029;-88
2021/10/08 00:08:09;;;;;;;9.77;8.20;;;;;;;5.64;100.00;93923.53;2082836;28;20496;-88
2021/10/08 00:09:10;;;;;;;10.15;8.15;;;;;;;5.72;100.00;93920.59;2074734;28;20057;-90
2021/10/08 00:10:11;;;;;;;12.32;8.18;;;;;;;5.65;100.00;93927.72;2082957;28;20025;-90
2021/10/08 00:11:12;;;;;;;8.32;7.38;;;;;;;5.64;100.00;93926.19;2082520;28;20022;-92
2021/10/08 00:12:13;;;;;;;10.80;7.88;;;;;;;5.62;100.00;93923.13;2077529;28;20052;-89
2021/10/08 00:13:14;;;;;;;11.43;8.40;;;;;;;5.59;100.00;93916.69;2082614;28;20025;-89
2021/10/08 00:14:15;;;;;;;8.80;7.90;;;;;;;5.59;100.00;93924.63;2083011;28;20060;-88
2021/10/08 00:15:16;;;;;;;8.77;7.88;;;;;;;5.54;100.00;93917.78;2082761;28;20075;-90
2021/10/08 00:16:17;;;;;;;10.70;8.75;;;;;;;5.61;100.00;93913.66;2081637;28;20025;-90
2021/10/08 00:17:18;;;;;;;10.90;8.40;;;;;;;5.61;100.00;93924.25;2082597;28;20049;-88
2021/10/08 00:18:19;;;;;;;12.20;8.63;;;;;;;5.59;100.00;93919.34;2082787;28;20029;-87
2021/10/08 00:19:21;;;;;;;9.20;8.25;;;;;;;5.74;100.00;93917.56;2090735;28;20029;-90
2021/10/08 00:20:22;;;;;;;9.25;8.25;;;;;;;5.64;100.00;93926.19;2091054;28;20040;-89
2021/10/08 00:21:23;;;;;;;9.25;8.30;;;;;;;5.61;100.00;93918.97;2082773;28;20049;-89
2021/10/08 00:22:25;;;;;;;10.60;8.77;;;;;;;5.55;100.00;93929.91;2090968;28;20051;-86
2021/10/08 00:23:26;;;;;;;9.30;8.40;;;;;;;5.53;100.00;93924.22;2098992;28;20537;-87
2021/10/08 00:24:27;;;;;;;8.77;8.02;;;;;;;5.52;100.00;93921.91;2090752;28;20078;-87
2021/10/08 00:25:28;;;;;;;12.85;8.48;;;;;;;5.53;100.00;93926.84;2090960;28;20025;-89
2021/10/08 00:26:29;;;;;;;11.85;8.85;;;;;;;5.60;100.00;93920.09;2090543;28;20459;-90
2021/10/08 00:27:30;;;;;;;9.43;8.48;;;;;;;5.56;100.00;93917.41;2082656;28;20052;-90
2021/10/08 00:28:32;;;;;;;10.55;9.40;;;;;;;5.58;100.00;93925.78;2066322;28;20068;-90
2021/10/08 00:29:34;;;;;;;11.68;8.75;;;;;;;5.54;100.00;93928.38;2066566;28;20034;-89
2021/10/08 00:30:35;;;;;;;11.32;9.18;;;;;;;5.67;100.00;93917.53;2082283;28;20068;-89
2021/10/08 00:31:37;;;;;;;9.50;8.60;;;;;;;5.70;100.00;93922.84;2082459;28;20617;-89
2021/10/08 00:32:38;;;;;;;11.07;8.50;;;;;;;5.77;100.00;93922.16;2074478;28;20076;-91
2021/10/08 00:33:39;;;;;;;11.35;8.45;;;;;;;5.76;100.00;93925.94;2090956;28;20071;-90
2021/10/08 00:34:40;;;;;;;10.68;8.88;;;;;;;5.87;100.00;93924.13;2099019;28;20031;-89
2021/10/08 00:35:41;;;;;;;9.80;8.35;;;;;;;5.94;100.00;93920.81;2105767;28;20020;-89
2021/10/08 00:36:42;;;;;;;11.00;8.20;;;;;;;5.90;100.00;93917.34;2090596;28;20099;-88
2021/10/08 00:37:43;;;;;;;10.10;8.38;;;;;;;5.84;100.00;93922.22;2082735;28;20036;-91
2021/10/08 00:38:44;;;;;;;10.10;8.95;;;;;;;5.95;100.00;93920.44;2089580;28;20504;-89
2021/10/08 00:39:45;;;;;;;12.18;9.20;;;;;;;5.94;100.00;93926.91;2090668;28;20021;-89
2021/10/08 00:40:47;;;;;;;10.23;8.75;;;;;;;5.92;100.00;93925.72;2082474;28;20025;-90
2021/10/08 00:41:48;;;;;;;11.25;8.93;;;;;;;5.86;100.00;93924.50;2082761;28;20018;-90
2021/10/08 00:42:50;;;;;;;10.02;8.95;;;;;;;5.87;100.00;93924.13;2082152;28;20025;-88
2021/10/08 00:43:52;;;;;;;9.48;8.13;;;;;;;5.86;100.00;93922.63;2082779;28;20470;-87
2021/10/08 00:44:54;;;;;;;10.35;8.70;;;;;;;5.83;100.00;93926.00;2090548;28;20021;-89
2021/10/08 00:45:55;;;;;;;9.43;8.43;;;;;;;5.83;100.00;93928.66;2083135;28;20025;-88
2021/10/08 00:46:57;;;;;;;10.27;8.88;;;;;;;5.87;100.00;93926.03;2090130;28;20017;-86
2021/10/08 00:48:04;;;;;;;9.30;8.23;;;;;;;5.80;100.00;93922.19;2083533;28;20033;-91
2021/10/08 00:49:06;;;;;;;14.35;9.45;;;;;;;5.82;100.00;93919.16;2091413;28;20504;-89
2021/10/08 00:50:08;;;;;;;10.85;9.20;;;;;;;5.87;100.00;93928.69;2082840;28;20455;-90
2021/10/08 00:51:09;;;;;;;12.55;9.07;;;;;;;5.87;100.00;93926.03;2071973;28;20373;-89
2021/10/08 00:52:10;;;;;;;11.95;8.65;;;;;;;5.90;100.00;93926.06;2068687;28;20042;-90
2021/10/08 00:53:12;;;;;;;9.82;8.82;;;;;;;5.94;100.00;93936.75;2078233;28;20120;-90
2021/10/08 00:54:13;;;;;;;10.20;9.13;;;;;;;5.93;100.00;93933.34;2074596;28;20026;-87
2021/10/08 00:55:14;;;;;;;10.88;8.77;;;;;;;5.94;100.00;93926.13;2071180;28;20030;-90
2021/10/08 00:56:20;;;;;;;10.52;9.05;;;;;;;6.04;100.00;93923.56;2071728;28;20026;-89
2021/10/08 00:57:21;;;;;;;9.85;8.85;;;;;;;6.02;100.00;93931.13;2075621;28;20018;-88
2021/10/08 00:58:22;;;;;;;9.90;8.98;;;;;;;6.00;100.00;93930.72;2074442;28;20030;-90
2021/10/08 00:59:26;;;;;;;9.82;8.82;;;;;;;5.96;100.00;93919.31;2094799;28;20059;-88
2021/10/08 01:00:27;;;;;;;10.55;8.63;;;;;;;5.94;100.00;93921.59;2107867;28;20020;-88
2021/10/08 01:01:29;;;;;;;10.52;9.18;;;;;;;5.90;100.00;93923.41;2107136;28;20028;-90
2021/10/08 01:02:30;;;;;;;11.35;9.13;;;;;;;6.04;100.00;93915.59;2082528;28;20022;-91
2021/10/08 01:03:32;;;;;;;10.05;8.88;;;;;;;6.06;100.00;93920.56;2077202;28;20120;-88
2021/10/08 01:04:34;;;;;;;11.40;9.55;;;;;;;6.03;100.00;93918.63;2079869;28;20032;-91
2021/10/08 01:05:39;;;;;;;11.15;8.57;;;;;;;6.20;100.00;93917.25;2083139;28;20494;-88
2021/10/08 01:06:40;;;;;;;9.85;8.77;;;;;;;6.15;100.00;93912.28;2075944;28;20033;-88
2021/10/08 01:07:41;;;;;;;9.90;8.90;;;;;;;6.08;100.00;93914.88;2080695;28;20041;-88
2021/10/08 01:08:43;;;;;;;10.77;9.40;;;;;;;6.01;100.00;93923.53;2083636;28;20068;-89
2021/10/08 01:09:44;;;;;;;11.52;9.20;;;;;;;6.00;100.00;93919.34;2082586;28;20045;-91
2021/10/08 01:10:46;;;;;;;11.43;9.98;;;;;;;6.19;100.00;93915.72;2082190;28;20478;-90
2021/10/08 01:11:47;;;;;;;11.77;9.68;;;;;;;6.05;100.00;93921.66;2082537;28;20453;-88
2021/10/08 01:12:48;;;;;;;11.02;9.13;;;;;;;6.12;100.00;93918.31;2073918;28;20108;-90
2021/10/08 01:13:49;;;;;;;13.48;9.93;;;;;;;6.20;100.00;93922.56;2074124;28;20026;-89
2021/10/08 01:14:50;;;;;;;12.20;9.45;;;;;;;6.32;100.00;93919.59;2082224;28;20525;-90
2021/10/08 01:15:55;;;;;;;10.65;9.18;;;;;;;6.12;100.00;93919.09;2074176;28;20025;-90
2021/10/08 01:16:56;;;;;;;12.80;9.60;;;;;;;6.12;100.00;93908.47;2082595;28;20881;-90
2021/10/08 01:17:57;;;;;;;11.10;9.55;;;;;;;6.24;100.00;93908.19;2082915;28;20032;-91
2021/10/08 01:18:58;;;;;;;12.10;9.57;;;;;;;6.18;100.00;93908.88;2083045;28;20032;-90
2021/10/08 01:20:07;;;;;;;11.57;9.95;;;;;;;6.09;100.00;93911.09;2081151;28;20025;-87
2021/10/08 01:21:08;;;;;;;11.27;8.85;;;;;;;6.02;100.00;93919.75;2075013;28;20018;-88
2021/10/08 01:22:09;;;;;;;10.82;9.55;;;;;;;6.14;100.00;93911.50;2066026;28;20074;-89
2021/10/08 01:23:11;;;;;;;12.45;9.60;;;;;;;6.09;100.00;93919.03;2074004;28;20106;-90
2021/10/08 01:24:12;;;;;;;10.63;9.10;;;;;;;6.08;100.00;93912.22;2090757;28;20017;-88
2021/10/08 01:25:13;;;;;;;10.90;9.73;;;;;;;6.13;100.00;93907.31;2082273;28;20029;-87
2021/10/08 01:26:14;;;;;;;11.50;9.90;;;;;;;6.17;100.00;93913.44;2084174;28;20025;-89
2021/10/08 01:27:15;;;;;;;14.90;9.75;;;;;;;6.03;100.00;93913.31;2082159;28;20026;-89
2021/10/08 01:28:19;;;;;;;13.50;8.85;;;;;;;6.13;100.00;93915.28;2073854;28;20505;-88
2021/10/08 01:29:20;;;;;;;10.70;9.48;;;;;;;6.12;100.00;93913.78;2066562;28;20111;-89
2021/10/08 01:30:22;;;;;;;12.75;9.98;;;;;;;6.02;100.00;93912.56;2074129;28;20025;-90
2021/10/08 01:31:23;;;;;;;11.57;9.23;;;;;;;5.97;100.00;93915.56;2073948;28;20055;-90
2021/10/08 01:32:26;;;;;;;13.93;10.07;;;;;;;5.98;100.00;93917.06;2073879;28;20040;-91
2021/10/08 01:33:27;;;;;;;11.73;9.43;;;;;;;5.93;100.00;93908.69;2082347;28;20029;-88
2021/10/08 01:34:28;;;;;;;10.80;9.70;;;;;;;5.98;100.00;93908.34;2079080;28;20025;-88
2021/10/08 01:35:29;;;;;;;16.08;10.05;;;;;;;6.00;100.00;93914.81;2082242;28;20056;-91
2021/10/08 01:36:31;;;;;;;13.85;10.38;;;;;;;6.09;100.00;93906.53;2098601;28;20398;-91
2021/10/08 01:37:31;;;;;;;15.85;9.55;;;;;;;6.14;100.00;93908.09;2095687;28;20111;-91
2021/10/08 01:38:32;;;;;;;12.52;9.27;;;;;;;6.12;100.00;93911.13;2076720;28;20033;-89
2021/10/08 01:39:33;;;;;;;10.93;9.52;;;;;;;6.03;100.00;93908.78;2073981;28;20021;-88
2021/10/08 01:40:35;;;;;;;10.50;9.38;;;;;;;6.08;100.00;93914.88;2076591;28;20080;-91
2021/10/08 01:41:37;;;;;;;13.90;9.95;;;;;;;6.25;100.00;93907.03;2074044;28;20088;-90
2021/10/08 01:42:38;;;;;;;13.85;9.38;;;;;;;6.12;100.00;93908.47;2075848;28;20104;-89
2021/10/08 01:43:39;;;;;;;11.30;9.32;;;;;;;6.22;100.00;93907.78;2088418;28;20110;-88
2021/10/08 01:44:41;;;;;;;10.25;9.25;;;;;;;6.04;100.00;93910.28;2090385;28;20021;-91
2021/10/08 01:45:42;;;;;;;10.65;9.55;;;;;;;5.94;100.00;93912.88;2082080;28;20496;-89
2021/10/08 01:46:43;;;;;;;12.07;9.55;;;;;;;5.92;100.00;93901.84;2081210;28;20438;-88
2021/10/08 01:47:44;;;;;;;10.25;9.23;;;;;;;5.95;100.00;93901.13;2098477;28;20024;-88
2021/10/08 01:48:45;;;;;;;10.40;9.05;;;;;;;5.92;100.00;93910.56;2082072;28;20024;-89
2021/10/08 01:49:46;;;;;;;10.13;9.13;;;;;;;6.02;100.00;93903.84;2089117;28;20025;-90
2021/10/08 01:50:47;;;;;;;10.18;8.95;;;;;;;5.94;100.00;93900.34;2081990;28;20104;-87
2021/10/08 01:51:48;;;;;;;12.90;9.77;;;;;;;5.90;100.00;93910.16;2090903;28;20027;-91
2021/10/08 01:52:49;;;;;;;14.73;8.82;;;;;;;5.87;100.00;93902.16;2097736;28;20107;-91
2021/10/08 01:53:50;;;;;;;16.13;9.15;;;;;;;5.95;100.00;93906.44;2090200;28;20493;-90
2021/10/08 01:54:54;;;;;;;12.40;9.68;;;;;;;5.84;100.00;93906.31;2090615;28;20500;-88
2021/10/08 01:55:55;;;;;;;11.80;10.30;;;;;;;5.78;100.00;93907.75;2080799;28;20112;-90
2021/10/08 01:56:56;;;;;;;11.88;10.00;;;;;;;5.96;100.00;93900.75;2082076;28;20025;-91
2021/10/08 01:57:57;;;;;;;13.82;9.73;;;;;;;5.91;100.00;93903.72;2082020;28;20050;-90
2021/10/08 01:58:58;;;;;;;12.00;9.57;;;;;;;5.89;100.00;93903.31;2086177;28;20467;-88
2021/10/08 01:59:59;;;;;;;13.68;9.77;;;;;;;5.75;100.00;93911.91;2089972;28;20921;-86
2021/10/08 02:01:00;;;;;;;11.35;9.50;;;;;;;5.81;100.00;93904.38;2090462;28;20489;-87
2021/10/08 02:02:01;;;;;;;13.95;9.90;;;;;;;5.74;100.00;93904.31;2090346;28;20029;-92
2021/10/08 02:03:03;;;;;;;10.55;9.25;;;;;;;5.75;100.00;93911.13;2082467;28;20479;-89
2021/10/08 02:04:04;;;;;;;12.20;9.13;;;;;;;5.75;100.00;93898.66;2080846;28;20018;-87
2021/10/08 02:05:08;;;;;;;13.02;9.65;;;;;;;5.73;100.00;93905.44;2076603;28;20053;-87
2021/10/08 02:07:48;;;;;;;;;;;;;;;5.62;100.00;93902.69;2146329;27;20587;-80
2021/10/08 02:08:49;;;;;;;9.43;8.07;;;;;;;5.66;100.00;93897.41;2141448;27;19911;-83
2021/10/08 02:09:50;;;;;;;11.18;8.93;;;;;;;5.61;100.00;93903.03;2131293;27;20031;-82
2021/10/08 02:10:51;;;;;;;10.98;9.40;;;;;;;5.60;100.00;93904.19;2122095;28;20011;-84
2021/10/08 02:11:52;;;;;;;13.50;9.48;;;;;;;5.54;100.00;93891.25;2113426;28;20092;-81
2021/10/08 02:12:53;;;;;;;11.98;9.55;;;;;;;5.56;100.00;93891.63;2122045;27;20020;-81
2021/10/08 02:13:55;;;;;;;11.73;10.27;;;;;;;5.59;100.00;93892.81;2113506;27;20098;-82
2021/10/08 02:14:56;;;;;;;12.13;9.77;;;;;;;5.56;100.00;93894.28;2122040;27;20019;-83
2021/10/08 02:15:56;;;;;;;10.00;8.90;;;;;;;5.54;100.00;93893.16;2130731;27;20071;-79
2021/10/08 02:16:58;;;;;;;12.15;9.35;;;;;;;5.47;100.00;93901.03;2122070;27;20562;-81
2021/10/08 02:17:58;;;;;;;10.77;9.57;;;;;;;5.43;100.00;93898.31;2113599;28;20026;-81
2021/10/08 02:19:00;;;;;;;11.25;9.55;;;;;;;5.48;100.00;93898.00;2097541;28;20493;-82
2021/10/08 02:20:01;;;;;;;13.98;10.02;;;;;;;5.57;100.00;93897.72;2105382;28;20016;-81
2021/10/08 02:21:02;;;;;;;15.80;9.50;;;;;;;5.59;100.00;93905.31;2122988;27;20053;-79
2021/10/08 02:22:03;;;;;;;10.93;9.73;;;;;;;5.65;100.00;93894.00;2115414;28;20024;-80
2021/10/08 02:23:05;;;;;;;13.20;9.73;;;;;;;5.52;100.00;93898.03;2097762;28;20017;-83
2021/10/08 02:24:06;;;;;;;10.50;9.27;;;;;;;5.54;100.00;93904.50;2096540;28;20025;-81
2021/10/08 02:25:07;;;;;;;12.55;9.63;;;;;;;5.48;100.00;93905.19;2105052;28;20035;-79
2021/10/08 02:26:08;;;;;;;11.18;8.95;;;;;;;5.58;100.00;93904.56;2112142;28;20047;-81
2021/10/08 02:27:09;;;;;;;12.85;9.82;;;;;;;5.65;100.00;93901.19;2121712;28;20023;-81
2021/10/08 02:28:10;;;;;;;11.68;9.57;;;;;;;5.53;100.00;93899.56;2121906;27;20030;-83
2021/10/08 02:29:11;;;;;;;12.38;9.52;;;;;;;5.49;100.00;93907.50;2121822;28;20050;-82
2021/10/08 02:30:13;;;;;;;12.90;9.02;;;;;;;5.46;100.00;93899.50;2113332;28;20785;-83
2021/10/08 02:31:15;;;;;;;10.82;9.40;;;;;;;5.45;100.00;93901.41;2122024;27;20126;-84
2021/10/08 02:32:16;;;;;;;11.77;10.13;;;;;;;5.48;100.00;93905.94;2121756;28;20061;-82
2021/10/08 02:33:17;;;;;;;10.73;9.63;;;;;;;5.47;100.00;93901.03;2121885;27;20029;-82
2021/10/08 02:34:18;;;;;;;11.13;9.65;;;;;;;5.49;100.00;93899.53;2121756;28;20072;-81
2021/10/08 02:35:19;;;;;;;13.15;9.90;;;;;;;5.44;100.00;93897.19;2113489;28;20032;-80
2021/10/08 02:36:20;;;;;;;13.88;9.98;;;;;;;5.55;100.00;93895.44;2113234;28;20049;-80
2021/10/08 02:37:21;;;;;;;10.73;9.05;;;;;;;5.63;100.00;93892.84;2104707;28;20024;-82
2021/10/08 02:38:22;;;;;;;10.43;9.32;;;;;;;5.68;100.00;93903.13;2096671;28;20021;-80
2021/10/08 02:39:23;;;;;;;12.57;10.05;;;;;;;5.61;100.00;93897.75;2113256;28;20028;-79
2021/10/08 02:40:24;;;;;;;12.77;10.35;;;;;;;5.53;100.00;93891.59;2113198;28;20024;-80
2021/10/08 02:41:25;;;;;;;11.93;9.32;;;;;;;5.41;100.00;93897.19;2109044;28;20057;-84
2021/10/08 02:42:26;;;;;;;11.98;9.48;;;;;;;5.39;100.00;93902.81;2104704;28;20028;-79
2021/10/08 02:43:27;;;;;;;12.80;9.45;;;;;;;5.28;100.00;93891.38;2113442;28;20088;-82
2021/10/08 02:44:28;;;;;;;13.23;9.85;;;;;;;5.25;100.00;93892.09;2121971;27;20384;-83
2021/10/08 02:45:29;;;;;;;10.57;9.48;;;;;;;5.20;100.00;93898.47;2121487;28;20026;-82
2021/10/08 02:46:30;;;;;;;12.18;9.18;;;;;;;5.28;100.00;93894.00;2121695;28;20019;-79
2021/10/08 02:47:31;;;;;;;13.10;8.80;;;;;;;5.25;100.00;93898.13;2113017;28;20016;-82
2021/10/08 02:48:34;;;;;;;10.15;9.20;;;;;;;5.09;100.00;93905.53;2121471;28;20047;-79
2021/10/08 02:49:35;;;;;;;10.18;8.80;;;;;;;5.19;100.00;93898.84;2121539;28;20027;-81
2021/10/08 02:50:36;;;;;;;13.40;9.05;;;;;;;5.15;100.00;93895.38;2112958;28;20028;-81
2021/10/08 02:51:37;;;;;;;10.52;9.43;;;;;;;5.16;100.00;93896.91;2104906;28;20027;-82
2021/10/08 02:52:38;;;;;;;13.48;9.52;;;;;;;5.10;100.00;93901.78;2113139;28;20023;-81
2021/10/08 02:53:39;;;;;;;9.82;8.80;;;;;;;5.05;100.00;93894.91;2113173;28;20030;-83
2021/10/08 02:54:40;;;;;;;10.13;8.85;;;;;;;5.08;100.00;93905.88;2113229;28;20089;-82
2021/10/08 02:55:41;;;;;;;10.23;9.05;;;;;;;5.01;100.00;93902.03;2104035;28;20491;-81
2021/10/08 02:56:42;;;;;;;9.48;8.57;;;;;;;4.97;100.00;93905.78;2096457;28;20425;-83
2021/10/08 02:57:44;;;;;;;11.10;8.25;;;;;;;4.91;100.00;93910.59;2101543;28;20066;-81
2021/10/08 02:58:44;;;;;;;10.75;8.60;;;;;;;4.85;100.00;93909.41;2104664;28;20095;-82
2021/10/08 02:59:45;;;;;;;10.20;8.73;;;;;;;4.90;100.00;93909.09;2104625;28;20110;-82
2021/10/08 03:00:46;;;;;;;11.93;9.60;;;;;;;5.00;100.00;93912.97;2104718;28;20024;-81
2021/10/08 03:01:47;;;;;;;10.90;9.13;;;;;;;4.94;100.00;93912.53;2112924;28;20480;-83
2021/10/08 03:02:48;;;;;;;11.43;9.55;;;;;;;4.92;100.00;93911.41;2113076;28;20057;-81
2021/10/08 03:03:49;;;;;;;14.05;9.23;;;;;;;4.89;100.00;93910.22;2113002;28;20069;-83
2021/10/08 03:04:50;;;;;;;11.88;8.43;;;;;;;4.98;100.00;93909.94;2113025;28;20031;-84
2021/10/08 03:05:51;;;;;;;13.98;9.35;;;;;;;4.97;100.00;93906.53;2113171;28;20020;-82
2021/10/08 03:06:52;;;;;;;9.98;8.48;;;;;;;4.96;100.00;93906.88;2121078;28;20063;-84
2021/10/08 03:07:53;;;;;;;9.75;8.75;;;;;;;4.89;100.00;93904.91;2112880;28;20110;-82
2021/10/08 03:08:56;;;;;;;9.65;8.73;;;;;;;4.85;100.00;93901.47;2112993;28;20019;-80
2021/10/08 03:09:57;;;;;;;12.63;8.98;;;;;;;4.78;100.00;93904.78;2104935;28;20024;-83
2021/10/08 03:10:58;;;;;;;10.00;8.00;;;;;;;4.84;100.00;93904.47;2105632;28;20016;-83
2021/10/08 03:11:59;;;;;;;10.75;8.75;;;;;;;4.90;100.00;93903.78;2112915;28;20388;-84
2021/10/08 03:13:01;;;;;;;14.25;10.25;;;;;;;4.84;100.00;93907.13;2104672;28;20404;-85
2021/10/08 03:14:02;;;;;;;14.10;9.07;;;;;;;4.80;100.00;93902.53;2112874;28;20171;-82
2021/10/08 03:15:05;;;;;;;14.38;9.07;;;;;;;4.77;100.00;93908.53;2112941;28;20030;-82
2021/10/08 03:16:06;;;;;;;11.48;8.93;;;;;;;4.80;100.00;93910.47;2114829;27;20565;-81
2021/10/08 03:17:07;;;;;;;13.82;8.88;;;;;;;4.84;100.00;93905.25;2121410;28;20026;-82
2021/10/08 03:18:08;;;;;;;9.43;8.48;;;;;;;4.91;100.00;93909.84;2121403;27;20020;-82
2021/10/08 03:19:09;;;;;;;11.02;9.05;;;;;;;4.86;100.00;93912.81;2125011;27;20054;-83
2021/10/08 03:20:10;;;;;;;11.77;9.40;;;;;;;4.89;100.00;93912.88;2115773;28;20031;-83
2021/10/08 03:21:11;;;;;;;11.93;9.32;;;;;;;4.96;100.00;93912.16;2115788;28;20032;-84
2021/10/08 03:22:12;;;;;;;10.40;9.27;;;;;;;4.96;100.00;93910.31;2107165;28;20450;-82
2021/10/08 03:23:13;;;;;;;9.80;8.43;;;;;;;4.92;100.00;93912.16;2090673;28;20021;-85
2021/10/08 03:24:14;;;;;;;12.13;8.93;;;;;;;4.85;100.00;93911.28;2098913;28;20033;-83
2021/10/08 03:25:15;;;;;;;10.93;9.00;;;;;;;4.84;100.00;93907.88;2098854;28;20532;-81
2021/10/08 03:26:16;;;;;;;9.85;8.90;;;;;;;4.80;100.00;93917.66;2104119;28;20483;-83
2021/10/08 03:27:17;;;;;;;10.43;9.32;;;;;;;4.82;100.00;93912.75;2115694;28;20024;-81
2021/10/08 03:28:18;;;;;;;12.27;8.88;;;;;;;4.77;100.00;93913.84;2115588;28;20015;-84
2021/10/08 03:29:19;;;;;;;12.00;8.90;;;;;;;4.73;100.00;93918.31;2124827;27;20393;-85
2021/10/08 03:30:20;;;;;;;10.43;8.90;;;;;;;4.74;100.00;93911.94;2107322;28;20019;-83
2021/10/08 03:31:21;;;;;;;11.30;9.02;;;;;;;4.72;100.00;93921.34;2107437;28;20202;-85
2021/10/08 03:32:22;;;;;;;10.63;8.85;;;;;;;4.75;100.00;93921.38;2123947;27;20034;-86
2021/10/08 03:33:23;;;;;;;12.13;9.35;;;;;;;4.76;100.00;93914.22;2106246;28;20497;-81
2021/10/08 03:34:24;;;;;;;11.40;8.52;;;;;;;4.70;100.00;93921.72;2107245;28;20434;-83
2021/10/08 03:35:25;;;;;;;11.70;9.65;;;;;;;4.78;100.00;93919.91;2107248;28;20028;-83
2021/10/08 03:36:31;;;;;;;13.32;10.32;;;;;;;4.82;100.00;93922.59;2115737;28;20015;-81
2021/10/08 03:38:45;;;;;;;10.65;8.77;;;;;;;4.85;100.00;93912.06;2117505;27;20157;-83
2021/10/08 03:39:48;;;;;;;10.73;9.18;;;;;;;4.86;100.00;93916.22;2115574;28;20518;-84
2021/10/08 03:41:01;;;;;;;15.63;9.50;;;;;;;4.87;100.00;93915.09;2115954;27;20058;-81
2021/10/08 03:42:04;;;;;;;11.02;9.05;;;;;;;4.84;100.00;93912.41;2107035;28;20527;-81
2021/10/08 03:43:05;;;;;;;11.95;9.20;;;;;;;4.82;100.00;93914.66;2107608;28;20065;-83
2021/10/08 03:44:06;;;;;;;14.00;10.25;;;;;;;4.97;100.00;93908.41;2124836;27;20491;-81
2021/10/08 03:45:14;;;;;;;11.35;9.95;;;;;;;4.97;100.00;93911.84;2124556;27;20030;-82
2021/10/08 03:46:15;;;;;;;13.60;10.00;;;;;;;5.02;100.00;93914.16;2107039;28;20051;-81
2021/10/08 03:47:23;;;;;;;12.90;9.77;;;;;;;5.04;100.00;93908.50;2107306;28;20825;-81
2021/10/08 03:49:34;;;;;;;10.43;9.35;;;;;;;5.04;100.00;93909.25;2115362;28;20020;-84
2021/10/08 03:50:35;;;;;;;14.30;10.18;;;;;;;5.09;100.00;93916.13;2106958;28;20032;-83
2021/10/08 03:51:36;;;;;;;13.23;10.40;;;;;;;5.21;100.00;93909.81;2107231;28;20507;-80
2021/10/08 03:52:37;;;;;;;12.77;10.00;;;;;;;5.18;100.00;93915.84;2098548;28;20397;-83
2021/10/08 03:53:38;;;;;;;12.20;9.52;;;;;;;5.13;100.00;93914.28;2098841;28;20024;-82
2021/10/08 03:54:39;;;;;;;14.77;9.65;;;;;;;5.16;100.00;93915.44;2115547;28;20024;-82
2021/10/08 03:55:41;;;;;;;16.58;10.15;;;;;;;5.18;100.00;93913.19;2105307;28;20024;-84
2021/10/08 03:56:43;;;;;;;12.38;10.45;;;;;;;5.20;100.00;93911.72;2105501;27;20081;-83
2021/10/08 03:57:44;;;;;;;11.63;10.43;;;;;;;5.20;100.00;93918.91;2106958;28;20046;-82
2021/10/08 03:58:45;;;;;;;12.55;9.90;;;;;;;5.17;100.00;93909.78;2098687;28;20720;-80
2021/10/08 03:59:46;;;;;;;12.57;10.73;;;;;;;5.21;100.00;93907.19;2107035;28;20099;-82
2021/10/08 04:00:47;;;;;;;14.82;10.02;;;;;;;5.34;100.00;93908.47;2106990;28;20071;-83
2021/10/08 04:01:48;;;;;;;12.27;10.50;;;;;;;5.43;100.00;93911.59;2098748;28;20550;-82
2021/10/08 04:02:49;;;;;;;11.75;10.23;;;;;;;5.46;100.00;93912.75;2099345;28;20087;-81
2021/10/08 04:03:50;;;;;;;11.80;10.18;;;;;;;5.38;100.00;93911.16;2107273;28;20020;-85
2021/10/08 04:04:51;;;;;;;11.50;9.80;;;;;;;5.39;100.00;93908.13;2106980;28;20035;-82
2021/10/08 04:05:52;;;;;;;12.88;9.82;;;;;;;5.39;100.00;93913.44;2115532;28;20788;-83
2021/10/08 04:06:53;;;;;;;13.48;9.63;;;;;;;5.35;100.00;93914.53;2106576;28;20046;-84
2021/10/08 04:07:54;;;;;;;12.93;10.25;;;;;;;5.37;100.00;93910.41;2099281;28;20025;-83
2021/10/08 04:08:55;;;;;;;12.25;9.88;;;;;;;5.28;100.00;93918.63;2108161;28;20040;-81
2021/10/08 04:09:56;;;;;;;13.40;9.52;;;;;;;5.39;100.00;93915.31;2101013;28;20048;-82
2021/10/08 04:10:57;;;;;;;13.10;9.93;;;;;;;5.34;100.00;93907.69;2109144;28;20032;-81
2021/10/08 04:11:58;;;;;;;11.70;10.43;;;;;;;5.38;100.00;93908.50;2115845;28;20044;-81
2021/10/08 04:12:59;;;;;;;11.00;9.45;;;;;;;5.34;100.00;93913.75;2123885;27;20030;-83
2021/10/08 04:14:00;;;;;;;17.95;10.98;;;;;;;5.37;100.00;93910.41;2115255;28;20085;-82
2021/10/08 04:15:01;;;;;;;15.73;10.45;;;;;;;5.36;100.00;93905.47;2107067;28;20055;-82
2021/10/08 04:16:03;;;;;;;15.77;10.77;;;;;;;5.30;100.00;93907.66;2106911;28;20386;-82
2021/10/08 04:17:04;;;;;;;15.48;10.57;;;;;;;5.26;100.00;93912.91;2106824;28;20023;-81
2021/10/08 04:18:05;;;;;;;16.65;10.75;;;;;;;5.24;100.00;93906.47;2115197;28;20031;-82
2021/10/08 04:19:06;;;;;;;13.80;11.13;;;;;;;5.29;100.00;93911.44;2114869;28;20053;-81
2021/10/08 04:20:08;;;;;;;13.63;10.82;;;;;;;5.30;100.00;93905.75;2102055;28;20492;-83
2021/10/08 04:21:09;;;;;;;16.48;11.27;;;;;;;5.29;100.00;93909.53;2090172;28;20021;-81
2021/10/08 04:22:10;;;;;;;13.50;10.85;;;;;;;5.33;100.00;93909.59;2105956;28;20028;-83
2021/10/08 04:23:11;;;;;;;20.25;11.38;;;;;;;5.37;100.00;93915.69;2098302;28;20025;-79
2021/10/08 04:24:12;;;;;;;14.38;11.48;;;;;;;5.29;100.00;93914.84;2098774;28;20028;-81
2021/10/08 04:25:13;;;;;;;13.85;10.93;;;;;;;5.37;100.00;93909.63;2098540;28;20025;-81
2021/10/08 04:26:14;;;;;;;13.63;11.50;;;;;;;5.42;100.00;93909.31;2084883;28;20466;-84
2021/10/08 04:27:15;;;;;;;13.75;11.95;;;;;;;5.36;100.00;93918.72;2090112;28;20112;-84
2021/10/08 04:28:16;;;;;;;13.32;11.63;;;;;;;5.32;100.00;93917.91;2090168;28;20032;-86
2021/10/08 04:29:17;;;;;;;15.73;11.70;;;;;;;5.28;100.00;93912.56;2090280;28;20035;-81
2021/10/08 04:30:18;;;;;;;14.98;11.68;;;;;;;5.32;100.00;93921.31;2098006;28;20020;-82
2021/10/08 04:31:19;;;;;;;15.82;11.63;;;;;;;5.31;100.00;93914.47;2097838;28;20074;-82
2021/10/08 04:32:20;;;;;;;17.55;11.60;;;;;;;5.26;100.00;93917.44;2091161;28;20056;-81
2021/10/08 04:33:25;;;;;;;14.63;11.45;;;;;;;5.25;100.00;93918.59;2091196;28;20428;-81
2021/10/08 04:34:26;;;;;;;13.60;11.45;;;;;;;5.25;100.00;93918.59;2099564;28;20113;-80
2021/10/08 04:35:27;;;;;;;15.65;10.98;;;;;;;5.27;100.00;93916.34;2115205;28;20024;-82
2021/10/08 04:36:28;;;;;;;12.95;10.85;;;;;;;5.25;100.00;93919.34;2098528;28;20086;-80
2021/10/08 04:37:29;;;;;;;14.82;11.60;;;;;;;5.34;100.00;93905.81;2098348;28;20127;-81
2021/10/08 04:38:31;;;;;;;17.30;11.82;;;;;;;5.35;100.00;93917.16;2106706;28;20016;-81
2021/10/08 04:39:32;;;;;;;18.27;12.80;;;;;;;5.33;100.00;93912.25;2090380;28;20390;-83
2021/10/08 04:40:33;;;;;;;15.80;12.50;;;;;;;5.34;100.00;93910.34;2090143;28;20024;-81
2021/10/08 04:41:34;;;;;;;15.82;12.65;;;;;;;5.29;100.00;93908.78;2098342;28;20096;-81
2021/10/08 04:42:35;;;;;;;14.98;12.55;;;;;;;5.30;100.00;93910.31;2097069;28;20024;-82
2021/10/08 04:43:36;;;;;;;14.75;12.38;;;;;;;5.28;100.00;93921.28;2105928;28;20474;-81
2021/10/08 04:44:37;;;;;;;13.60;11.88;;;;;;;5.32;100.00;93905.41;2097409;28;20020;-81
2021/10/08 04:45:38;;;;;;;15.70;12.60;;;;;;;5.38;100.00;93903.97;2105894;28;20032;-84
2021/10/08 04:46:39;;;;;;;20.85;12.77;;;;;;;5.42;100.00;93898.69;2105749;28;20032;-83
2021/10/08 04:47:40;;;;;;;18.38;13.60;;;;;;;5.47;100.00;93916.94;2097288;28;20017;-81
2021/10/08 04:48:41;;;;;;;20.95;13.75;;;;;;;5.47;100.00;93906.31;2097504;28;20029;-84
2021/10/08 04:49:42;;;;;;;18.85;13.93;;;;;;;5.47;100.00;93904.44;2097979;28;20515;-82